JTC751 KNEW-TNCM
Flight info
| Callsign | JTC751 |
|---|---|
| Flight time | 3h 12m |
| Altitude | 37000 |
| Route | BLVNS Y290 GAWKS DCT SWIMM BR53V ZQA Y399 CADGE/N0518F390 Y399 SAPPO Y280 ACONY DCT SLUGO A638 PJM |
| Aircraft | C750/M-SBDE3FGHRWXY/S |
Departure
| Time | 2026-05-06 20:56 |
|---|---|
| Airport | Lakefront Airport (KNEW) |
Arrival
| Time | 2026-05-07 00:08 |
|---|---|
| Airport | Princess Juliana International Airport (TNCM) |
| Time | Latitude | Longitude | Altitude | Speed | Heading |
|---|---|---|---|---|---|
| 2026-05-06 20:42 | 30.03488 | -90.02796 | 11 ft | 0 kts | 48° |
| 2026-05-06 20:51 | 30.03490 | -90.02797 | 11 ft | 0 kts | 12° |
| 2026-05-06 20:51 | 30.03502 | -90.02812 | 11 ft | 7 kts | 314° |
| 2026-05-06 20:51 | 30.03576 | -90.02856 | 11 ft | 18 kts | 346° |
| 2026-05-06 20:51 | 30.03700 | -90.02861 | 11 ft | 17 kts | 359° |
| 2026-05-06 20:52 | 30.03812 | -90.02862 | 11 ft | 15 kts | 360° |
| 2026-05-06 20:52 | 30.03912 | -90.02862 | 11 ft | 13 kts | 359° |
| 2026-05-06 20:52 | 30.04003 | -90.02863 | 12 ft | 14 kts | 356° |
| 2026-05-06 20:52 | 30.04111 | -90.02867 | 12 ft | 17 kts | 360° |
| 2026-05-06 20:53 | 30.04245 | -90.02865 | 12 ft | 21 kts | 2° |
| 2026-05-06 20:53 | 30.04401 | -90.02871 | 12 ft | 23 kts | 358° |
| 2026-05-06 20:53 | 30.04556 | -90.02872 | 12 ft | 22 kts | 359° |
| 2026-05-06 20:53 | 30.04709 | -90.02874 | 11 ft | 22 kts | 359° |
| 2026-05-06 20:54 | 30.04860 | -90.02865 | 11 ft | 21 kts | 15° |
| 2026-05-06 20:54 | 30.05002 | -90.02846 | 11 ft | 20 kts | 359° |
| 2026-05-06 20:54 | 30.05134 | -90.02864 | 11 ft | 18 kts | 353° |
| 2026-05-06 20:54 | 30.05267 | -90.02895 | 11 ft | 17 kts | 314° |
| 2026-05-06 20:55 | 30.05265 | -90.02988 | 11 ft | 7 kts | 227° |
| 2026-05-06 20:55 | 30.05181 | -90.02987 | 10 ft | 32 kts | 180° |
| 2026-05-06 20:55 | 30.04623 | -90.02981 | 12 ft | 123 kts | 180° |
| 2026-05-06 20:55 | 30.03690 | -90.02946 | 428 ft | 138 kts | 179° |
| 2026-05-06 20:56 | 30.02705 | -90.02861 | 1014 ft | 148 kts | 177° |
| 2026-05-06 20:56 | 30.01649 | -90.02750 | 1456 ft | 162 kts | 179° |
| 2026-05-06 20:56 | 30.00428 | -90.02624 | 1662 ft | 190 kts | 176° |
| 2026-05-06 20:56 | 29.99077 | -90.02081 | 1796 ft | 225 kts | 153° |
| 2026-05-06 20:57 | 29.97845 | -90.00763 | 2142 ft | 254 kts | 137° |
| 2026-05-06 20:57 | 29.96668 | -89.99237 | 2974 ft | 256 kts | 136° |
| 2026-05-06 20:57 | 29.95454 | -89.97687 | 3631 ft | 265 kts | 137° |
| 2026-05-06 20:57 | 29.94199 | -89.96108 | 4420 ft | 269 kts | 137° |
| 2026-05-06 20:58 | 29.92943 | -89.94528 | 5328 ft | 267 kts | 137° |
| 2026-05-06 20:58 | 29.91673 | -89.92936 | 5974 ft | 276 kts | 137° |
| 2026-05-06 20:58 | 29.90373 | -89.91266 | 6649 ft | 281 kts | 137° |
| 2026-05-06 20:58 | 29.89049 | -89.89580 | 7342 ft | 286 kts | 138° |
| 2026-05-06 20:59 | 29.87700 | -89.87877 | 8179 ft | 287 kts | 138° |
| 2026-05-06 20:59 | 29.86348 | -89.86179 | 9058 ft | 289 kts | 139° |
| 2026-05-06 20:59 | 29.84970 | -89.84459 | 9821 ft | 295 kts | 139° |
| 2026-05-06 20:59 | 29.83567 | -89.82688 | 10308 ft | 308 kts | 139° |
| 2026-05-06 21:00 | 29.82057 | -89.80787 | 10380 ft | 334 kts | 138° |
| 2026-05-06 21:00 | 29.80488 | -89.78797 | 11030 ft | 335 kts | 137° |
| 2026-05-06 21:00 | 29.78906 | -89.76791 | 11638 ft | 341 kts | 138° |
| 2026-05-06 21:00 | 29.77291 | -89.74765 | 12219 ft | 345 kts | 138° |
| 2026-05-06 21:01 | 29.75678 | -89.72740 | 12810 ft | 350 kts | 138° |
| 2026-05-06 21:01 | 29.74024 | -89.70657 | 13429 ft | 355 kts | 138° |
| 2026-05-06 21:01 | 29.72349 | -89.68546 | 14027 ft | 360 kts | 138° |
| 2026-05-06 21:01 | 29.70646 | -89.66408 | 14583 ft | 364 kts | 138° |
| 2026-05-06 21:02 | 29.68923 | -89.64247 | 15108 ft | 368 kts | 138° |
| 2026-05-06 21:02 | 29.67183 | -89.62059 | 15626 ft | 373 kts | 138° |
| 2026-05-06 21:02 | 29.65426 | -89.59854 | 16157 ft | 377 kts | 138° |
| 2026-05-06 21:02 | 29.63642 | -89.57619 | 16689 ft | 381 kts | 138° |
| 2026-05-06 21:03 | 29.61838 | -89.55359 | 17232 ft | 386 kts | 138° |
| 2026-05-06 21:03 | 29.60015 | -89.53075 | 17786 ft | 390 kts | 138° |
| 2026-05-06 21:03 | 29.58167 | -89.50762 | 18340 ft | 395 kts | 138° |
| 2026-05-06 21:03 | 29.56299 | -89.48425 | 18836 ft | 399 kts | 138° |
| 2026-05-06 21:04 | 29.54411 | -89.46065 | 19343 ft | 403 kts | 138° |
| 2026-05-06 21:04 | 29.52502 | -89.43679 | 19866 ft | 407 kts | 138° |
| 2026-05-06 21:04 | 29.50601 | -89.41305 | 20382 ft | 411 kts | 138° |
| 2026-05-06 21:04 | 29.48651 | -89.38872 | 20893 ft | 416 kts | 138° |
| 2026-05-06 21:05 | 29.46683 | -89.36418 | 21418 ft | 420 kts | 139° |
| 2026-05-06 21:05 | 29.44692 | -89.33936 | 21941 ft | 425 kts | 139° |
| 2026-05-06 21:05 | 29.42674 | -89.31422 | 22456 ft | 430 kts | 139° |
| 2026-05-06 21:05 | 29.40637 | -89.28887 | 22980 ft | 434 kts | 139° |
| 2026-05-06 21:06 | 29.38576 | -89.26323 | 23505 ft | 439 kts | 139° |
| 2026-05-06 21:06 | 29.36498 | -89.23739 | 23956 ft | 443 kts | 139° |
| 2026-05-06 21:06 | 29.34399 | -89.21130 | 24392 ft | 447 kts | 139° |
| 2026-05-06 21:06 | 29.32281 | -89.18500 | 24848 ft | 450 kts | 139° |
| 2026-05-06 21:07 | 29.30145 | -89.15850 | 25316 ft | 454 kts | 139° |
| 2026-05-06 21:07 | 29.27996 | -89.13185 | 25776 ft | 457 kts | 139° |
| 2026-05-06 21:07 | 29.25828 | -89.10500 | 26233 ft | 461 kts | 139° |
| 2026-05-06 21:07 | 29.23675 | -89.07832 | 26692 ft | 463 kts | 139° |
| 2026-05-06 21:08 | 29.21484 | -89.05119 | 27226 ft | 465 kts | 139° |
| 2026-05-06 21:08 | 29.19277 | -89.02392 | 27667 ft | 469 kts | 139° |
| 2026-05-06 21:08 | 29.17049 | -88.99640 | 28132 ft | 473 kts | 139° |
| 2026-05-06 21:08 | 29.14810 | -88.96873 | 28591 ft | 476 kts | 139° |
| 2026-05-06 21:09 | 29.12551 | -88.94085 | 29034 ft | 480 kts | 139° |
| 2026-05-06 21:09 | 29.10275 | -88.91280 | 29470 ft | 483 kts | 139° |
| 2026-05-06 21:09 | 29.07981 | -88.88453 | 29903 ft | 487 kts | 139° |
| 2026-05-06 21:09 | 29.05670 | -88.85606 | 30276 ft | 490 kts | 139° |
| 2026-05-06 21:10 | 29.03336 | -88.82733 | 30624 ft | 493 kts | 139° |
| 2026-05-06 21:10 | 29.00993 | -88.79852 | 30975 ft | 496 kts | 139° |
| 2026-05-06 21:10 | 28.98637 | -88.76956 | 31317 ft | 499 kts | 139° |
| 2026-05-06 21:10 | 28.96266 | -88.74044 | 31652 ft | 502 kts | 139° |
| 2026-05-06 21:11 | 28.93878 | -88.71114 | 31998 ft | 504 kts | 138° |
| 2026-05-06 21:11 | 28.91484 | -88.68178 | 32370 ft | 507 kts | 138° |
| 2026-05-06 21:11 | 28.89097 | -88.65253 | 32679 ft | 510 kts | 138° |
| 2026-05-06 21:11 | 28.86671 | -88.62283 | 33006 ft | 513 kts | 138° |
| 2026-05-06 21:12 | 28.84232 | -88.59299 | 33331 ft | 516 kts | 138° |
| 2026-05-06 21:12 | 28.81778 | -88.56298 | 33653 ft | 518 kts | 138° |
| 2026-05-06 21:12 | 28.79308 | -88.53281 | 33962 ft | 521 kts | 138° |
| 2026-05-06 21:12 | 28.76832 | -88.50257 | 34387 ft | 520 kts | 138° |
| 2026-05-06 21:13 | 28.74373 | -88.47254 | 34910 ft | 516 kts | 138° |
| 2026-05-06 21:13 | 28.71923 | -88.44269 | 35331 ft | 516 kts | 138° |
| 2026-05-06 21:13 | 28.69474 | -88.41288 | 35780 ft | 514 kts | 138° |
| 2026-05-06 21:13 | 28.67039 | -88.38322 | 36283 ft | 511 kts | 138° |
| 2026-05-06 21:14 | 28.64618 | -88.35375 | 36769 ft | 507 kts | 138° |
| 2026-05-06 21:14 | 28.62201 | -88.32440 | 36972 ft | 512 kts | 138° |
| 2026-05-06 21:14 | 28.59741 | -88.29461 | 36975 ft | 521 kts | 138° |
| 2026-05-06 21:15 | 28.54703 | -88.23342 | 36993 ft | 538 kts | 138° |
| 2026-05-06 21:15 | 28.49514 | -88.17059 | 36997 ft | 550 kts | 138° |
| 2026-05-06 21:16 | 28.44297 | -88.10743 | 36994 ft | 552 kts | 138° |
| 2026-05-06 21:16 | 28.39267 | -88.04093 | 36976 ft | 560 kts | 128° |
| 2026-05-06 21:17 | 28.35868 | -87.96173 | 38047 ft | 545 kts | 110° |
| 2026-05-06 21:17 | 28.34798 | -87.92103 | 38862 ft | 534 kts | 107° |
| 2026-05-06 21:17 | 28.33833 | -87.88024 | 38969 ft | 539 kts | 107° |
| 2026-05-06 21:18 | 28.31434 | -87.79870 | 38985 ft | 550 kts | 112° |
| 2026-05-06 21:18 | 28.29001 | -87.71525 | 38996 ft | 562 kts | 109° |
| 2026-05-06 21:19 | 28.26589 | -87.63085 | 39007 ft | 563 kts | 111° |
| 2026-05-06 21:19 | 28.24085 | -87.54657 | 39007 ft | 564 kts | 109° |
| 2026-05-06 21:20 | 28.21662 | -87.46200 | 39003 ft | 564 kts | 111° |
| 2026-05-06 21:20 | 28.19171 | -87.37831 | 39004 ft | 564 kts | 110° |
| 2026-05-06 21:21 | 28.16724 | -87.29383 | 38998 ft | 563 kts | 110° |
| 2026-05-06 21:21 | 28.14222 | -87.20969 | 38998 ft | 563 kts | 110° |
| 2026-05-06 21:22 | 28.11756 | -87.12548 | 38995 ft | 563 kts | 110° |
| 2026-05-06 21:22 | 28.09257 | -87.04143 | 38998 ft | 563 kts | 110° |
| 2026-05-06 21:23 | 28.06771 | -86.95731 | 38999 ft | 563 kts | 110° |
| 2026-05-06 21:23 | 28.04261 | -86.87310 | 39007 ft | 563 kts | 110° |
| 2026-05-06 21:24 | 28.01779 | -86.78967 | 39007 ft | 560 kts | 110° |
| 2026-05-06 21:24 | 27.99307 | -86.70589 | 39005 ft | 561 kts | 109° |
| 2026-05-06 21:25 | 27.96916 | -86.62174 | 39008 ft | 561 kts | 110° |
| 2026-05-06 21:25 | 27.94455 | -86.53797 | 39009 ft | 562 kts | 109° |
| 2026-05-06 21:26 | 27.92446 | -86.46812 | 39009 ft | 561 kts | 109° |
| 2026-05-06 21:26 | 27.89593 | -86.37072 | 39011 ft | 561 kts | 109° |
| 2026-05-06 21:27 | 27.87548 | -86.30040 | 39018 ft | 561 kts | 109° |
| 2026-05-06 21:27 | 27.85090 | -86.21660 | 39017 ft | 561 kts | 109° |
| 2026-05-06 21:28 | 27.82633 | -86.13282 | 39021 ft | 562 kts | 109° |
| 2026-05-06 21:28 | 27.80166 | -86.04903 | 39021 ft | 562 kts | 109° |
| 2026-05-06 21:29 | 27.77695 | -85.96525 | 39020 ft | 562 kts | 109° |
| 2026-05-06 21:29 | 27.75233 | -85.88205 | 39021 ft | 562 kts | 109° |
| 2026-05-06 21:30 | 27.72748 | -85.79824 | 39020 ft | 562 kts | 109° |
| 2026-05-06 21:30 | 27.70260 | -85.71454 | 39024 ft | 562 kts | 109° |
| 2026-05-06 21:31 | 27.67767 | -85.63088 | 39025 ft | 562 kts | 109° |
| 2026-05-06 21:31 | 27.65273 | -85.54737 | 39026 ft | 562 kts | 110° |
| 2026-05-06 21:32 | 27.62773 | -85.46388 | 39030 ft | 562 kts | 110° |
| 2026-05-06 21:32 | 27.59079 | -85.33825 | 39017 ft | 564 kts | 105° |
| 2026-05-06 21:33 | 27.57578 | -85.25189 | 39038 ft | 564 kts | 99° |
| 2026-05-06 21:33 | 27.56082 | -85.16515 | 39041 ft | 564 kts | 102° |
| 2026-05-06 21:34 | 27.54540 | -85.07848 | 39044 ft | 564 kts | 100° |
| 2026-05-06 21:34 | 27.53047 | -84.99160 | 39038 ft | 565 kts | 102° |
| 2026-05-06 21:35 | 27.51497 | -84.90532 | 39048 ft | 565 kts | 101° |
| 2026-05-06 21:35 | 27.49989 | -84.81849 | 39049 ft | 565 kts | 101° |
| 2026-05-06 21:36 | 27.48429 | -84.73176 | 39042 ft | 565 kts | 101° |
| 2026-05-06 21:36 | 27.46897 | -84.64494 | 39045 ft | 564 kts | 101° |
| 2026-05-06 21:37 | 27.45337 | -84.55832 | 39045 ft | 564 kts | 101° |
| 2026-05-06 21:37 | 27.43790 | -84.47166 | 39046 ft | 564 kts | 101° |
| 2026-05-06 21:38 | 27.42224 | -84.38507 | 39047 ft | 564 kts | 101° |
| 2026-05-06 21:38 | 27.40662 | -84.29847 | 39047 ft | 564 kts | 101° |
| 2026-05-06 21:39 | 27.39087 | -84.21189 | 39051 ft | 565 kts | 101° |
| 2026-05-06 21:39 | 27.37522 | -84.12588 | 39051 ft | 565 kts | 101° |
| 2026-05-06 21:40 | 27.35937 | -84.03932 | 39050 ft | 564 kts | 101° |
| 2026-05-06 21:40 | 27.34350 | -83.95276 | 39038 ft | 564 kts | 101° |
| 2026-05-06 21:41 | 27.32763 | -83.86670 | 39037 ft | 562 kts | 101° |
| 2026-05-06 21:41 | 27.31174 | -83.78068 | 39039 ft | 562 kts | 101° |
| 2026-05-06 21:42 | 27.29577 | -83.69462 | 39039 ft | 562 kts | 101° |
| 2026-05-06 21:42 | 27.27975 | -83.60856 | 39042 ft | 562 kts | 101° |
| 2026-05-06 21:43 | 27.26367 | -83.52254 | 39040 ft | 562 kts | 101° |
| 2026-05-06 21:43 | 27.24753 | -83.43650 | 39041 ft | 562 kts | 101° |
| 2026-05-06 21:44 | 27.23147 | -83.35113 | 39040 ft | 562 kts | 101° |
| 2026-05-06 21:44 | 27.21525 | -83.26527 | 39042 ft | 562 kts | 101° |
| 2026-05-06 21:45 | 27.19896 | -83.17931 | 39043 ft | 562 kts | 101° |
| 2026-05-06 21:45 | 27.18199 | -83.09358 | 39028 ft | 563 kts | 105° |
| 2026-05-06 21:46 | 27.15260 | -83.01229 | 39036 ft | 562 kts | 116° |
| 2026-05-06 21:46 | 27.11944 | -82.93282 | 39051 ft | 563 kts | 113° |
| 2026-05-06 21:47 | 27.08875 | -82.85200 | 39064 ft | 562 kts | 115° |
| 2026-05-06 21:47 | 27.05592 | -82.77230 | 39064 ft | 563 kts | 114° |
| 2026-05-06 21:48 | 27.02465 | -82.69179 | 39062 ft | 563 kts | 114° |
| 2026-05-06 21:48 | 26.99212 | -82.61186 | 39062 ft | 563 kts | 114° |
| 2026-05-06 21:49 | 26.96064 | -82.53223 | 39054 ft | 560 kts | 114° |
| 2026-05-06 21:49 | 26.92844 | -82.45260 | 39059 ft | 561 kts | 115° |
| 2026-05-06 21:50 | 26.89648 | -82.37267 | 39059 ft | 562 kts | 114° |
| 2026-05-06 21:50 | 26.86428 | -82.29296 | 39057 ft | 562 kts | 114° |
| 2026-05-06 21:51 | 26.83212 | -82.21312 | 39061 ft | 562 kts | 114° |
| 2026-05-06 21:51 | 26.79988 | -82.13346 | 39061 ft | 562 kts | 115° |
| 2026-05-06 21:52 | 26.76782 | -82.05427 | 39059 ft | 561 kts | 114° |
| 2026-05-06 21:52 | 26.73549 | -81.97465 | 39058 ft | 561 kts | 115° |
| 2026-05-06 21:53 | 26.70314 | -81.89508 | 39045 ft | 561 kts | 115° |
| 2026-05-06 21:53 | 26.67074 | -81.81556 | 39045 ft | 561 kts | 115° |
| 2026-05-06 21:54 | 26.63833 | -81.73618 | 39056 ft | 561 kts | 115° |
| 2026-05-06 21:54 | 26.60597 | -81.65706 | 39049 ft | 557 kts | 114° |
| 2026-05-06 21:55 | 26.57363 | -81.57813 | 39054 ft | 559 kts | 114° |
| 2026-05-06 21:55 | 26.54138 | -81.49959 | 39041 ft | 559 kts | 114° |
| 2026-05-06 21:56 | 26.50884 | -81.42049 | 39037 ft | 560 kts | 114° |
| 2026-05-06 21:56 | 26.47628 | -81.34151 | 39035 ft | 560 kts | 115° |
| 2026-05-06 21:57 | 26.44368 | -81.26255 | 39041 ft | 561 kts | 114° |
| 2026-05-06 21:57 | 26.41118 | -81.18398 | 39041 ft | 561 kts | 115° |
| 2026-05-06 21:58 | 26.37840 | -81.10492 | 39042 ft | 561 kts | 115° |
| 2026-05-06 21:58 | 26.34560 | -81.02594 | 39044 ft | 561 kts | 115° |
| 2026-05-06 21:59 | 26.31273 | -80.94694 | 39043 ft | 561 kts | 115° |
| 2026-05-06 21:59 | 26.27979 | -80.86791 | 39039 ft | 562 kts | 115° |
| 2026-05-06 22:00 | 26.24687 | -80.78909 | 39029 ft | 560 kts | 114° |
| 2026-05-06 22:00 | 26.21395 | -80.71041 | 39029 ft | 560 kts | 115° |
| 2026-05-06 22:01 | 26.18118 | -80.63225 | 39035 ft | 560 kts | 115° |
| 2026-05-06 22:01 | 26.14816 | -80.55361 | 39041 ft | 560 kts | 115° |
| 2026-05-06 22:02 | 26.11503 | -80.47487 | 39057 ft | 561 kts | 114° |
| 2026-05-06 22:02 | 26.08184 | -80.39615 | 39068 ft | 562 kts | 115° |
| 2026-05-06 22:03 | 26.04864 | -80.31752 | 39071 ft | 562 kts | 115° |
| 2026-05-06 22:03 | 26.01536 | -80.23887 | 39070 ft | 561 kts | 115° |
| 2026-05-06 22:04 | 25.98229 | -80.16087 | 39075 ft | 562 kts | 114° |
| 2026-05-06 22:04 | 25.94868 | -80.08172 | 39067 ft | 563 kts | 114° |
| 2026-05-06 22:05 | 25.91542 | -80.00355 | 39063 ft | 563 kts | 115° |
| 2026-05-06 22:05 | 25.88203 | -79.92520 | 39051 ft | 561 kts | 114° |
| 2026-05-06 22:06 | 25.84863 | -79.84698 | 39047 ft | 561 kts | 114° |
| 2026-05-06 22:06 | 25.81511 | -79.76863 | 39053 ft | 562 kts | 114° |
| 2026-05-06 22:07 | 25.78156 | -79.69033 | 39056 ft | 562 kts | 114° |
| 2026-05-06 22:07 | 25.74820 | -79.61264 | 39053 ft | 562 kts | 114° |
| 2026-05-06 22:08 | 25.71433 | -79.53389 | 39059 ft | 562 kts | 114° |
| 2026-05-06 22:08 | 25.68085 | -79.45619 | 39059 ft | 562 kts | 114° |
| 2026-05-06 22:09 | 25.66406 | -79.41727 | 39423 ft | 552 kts | 114° |
| 2026-05-06 22:09 | 25.64785 | -79.37980 | 40522 ft | 531 kts | 114° |
| 2026-05-06 22:09 | 25.63201 | -79.34315 | 41055 ft | 524 kts | 114° |
| 2026-05-06 22:09 | 25.61616 | -79.30643 | 41048 ft | 532 kts | 114° |
| 2026-05-06 22:10 | 25.58371 | -79.23155 | 41054 ft | 545 kts | 115° |
| 2026-05-06 22:10 | 25.55060 | -79.15520 | 41063 ft | 554 kts | 115° |
| 2026-05-06 22:11 | 25.51722 | -79.07845 | 41062 ft | 553 kts | 114° |
| 2026-05-06 22:11 | 25.48959 | -78.99913 | 41056 ft | 552 kts | 102° |
| 2026-05-06 22:12 | 25.47244 | -78.91651 | 41065 ft | 551 kts | 101° |
| 2026-05-06 22:12 | 25.45233 | -78.83452 | 41063 ft | 552 kts | 103° |
| 2026-05-06 22:13 | 25.43694 | -78.76616 | 41063 ft | 551 kts | 101° |
| 2026-05-06 22:13 | 25.41787 | -78.68395 | 41078 ft | 552 kts | 103° |
| 2026-05-06 22:14 | 25.39848 | -78.60155 | 41058 ft | 552 kts | 101° |
| 2026-05-06 22:14 | 25.37954 | -78.51981 | 41057 ft | 553 kts | 102° |
| 2026-05-06 22:15 | 25.36006 | -78.43759 | 41058 ft | 553 kts | 102° |
| 2026-05-06 22:15 | 25.34083 | -78.35522 | 41058 ft | 553 kts | 102° |
| 2026-05-06 22:16 | 25.32131 | -78.27296 | 41059 ft | 553 kts | 102° |
| 2026-05-06 22:16 | 25.30175 | -78.19083 | 41052 ft | 553 kts | 104° |
| 2026-05-06 22:17 | 25.27348 | -78.11144 | 41061 ft | 556 kts | 111° |
| 2026-05-06 22:17 | 25.24399 | -78.03306 | 41066 ft | 555 kts | 109° |
| 2026-05-06 22:18 | 25.21517 | -77.95387 | 41069 ft | 556 kts | 110° |
| 2026-05-06 22:18 | 25.18536 | -77.87484 | 41064 ft | 556 kts | 110° |
| 2026-05-06 22:19 | 25.15628 | -77.79565 | 41070 ft | 557 kts | 110° |
| 2026-05-06 22:19 | 25.12656 | -77.71668 | 41063 ft | 557 kts | 110° |
| 2026-05-06 22:20 | 25.09739 | -77.63802 | 41068 ft | 554 kts | 110° |
| 2026-05-06 22:20 | 25.06785 | -77.55946 | 41087 ft | 554 kts | 110° |
| 2026-05-06 22:21 | 25.03871 | -77.48144 | 41085 ft | 554 kts | 110° |
| 2026-05-06 22:21 | 25.00648 | -77.40409 | 41080 ft | 556 kts | 115° |
| 2026-05-06 22:22 | 24.97073 | -77.32853 | 41080 ft | 556 kts | 115° |
| 2026-05-06 22:22 | 24.93606 | -77.25231 | 41073 ft | 556 kts | 115° |
| 2026-05-06 22:23 | 24.90053 | -77.17649 | 41068 ft | 558 kts | 115° |
| 2026-05-06 22:23 | 24.86539 | -77.10026 | 41066 ft | 557 kts | 114° |
| 2026-05-06 22:24 | 24.82992 | -77.02432 | 41064 ft | 557 kts | 115° |
| 2026-05-06 22:24 | 24.79462 | -76.94834 | 41064 ft | 557 kts | 115° |
| 2026-05-06 22:25 | 24.75938 | -76.87292 | 41061 ft | 557 kts | 115° |
| 2026-05-06 22:25 | 24.72390 | -76.79694 | 41051 ft | 558 kts | 114° |
| 2026-05-06 22:26 | 24.68833 | -76.72097 | 41046 ft | 558 kts | 114° |
| 2026-05-06 22:26 | 24.65272 | -76.64500 | 41053 ft | 558 kts | 114° |
| 2026-05-06 22:27 | 24.61707 | -76.56910 | 41044 ft | 558 kts | 114° |
| 2026-05-06 22:27 | 24.58140 | -76.49328 | 41068 ft | 559 kts | 114° |
| 2026-05-06 22:28 | 24.54560 | -76.41731 | 41067 ft | 560 kts | 114° |
| 2026-05-06 22:28 | 24.51001 | -76.34189 | 41071 ft | 560 kts | 114° |
| 2026-05-06 22:29 | 24.47414 | -76.26602 | 41072 ft | 560 kts | 114° |
| 2026-05-06 22:29 | 24.43825 | -76.19020 | 41072 ft | 560 kts | 114° |
| 2026-05-06 22:30 | 24.40227 | -76.11435 | 41068 ft | 560 kts | 114° |
| 2026-05-06 22:30 | 24.36626 | -76.03852 | 41069 ft | 560 kts | 114° |
| 2026-05-06 22:31 | 24.33032 | -75.96301 | 41062 ft | 558 kts | 114° |
| 2026-05-06 22:31 | 24.29442 | -75.88765 | 41062 ft | 558 kts | 114° |
| 2026-05-06 22:32 | 24.25842 | -75.81225 | 41052 ft | 558 kts | 114° |
| 2026-05-06 22:32 | 24.22243 | -75.73696 | 41062 ft | 557 kts | 114° |
| 2026-05-06 22:33 | 24.18641 | -75.66174 | 41058 ft | 557 kts | 114° |
| 2026-05-06 22:33 | 24.15042 | -75.58668 | 41066 ft | 557 kts | 114° |
| 2026-05-06 22:34 | 24.11458 | -75.51207 | 41057 ft | 557 kts | 114° |
| 2026-05-06 22:34 | 24.07850 | -75.43708 | 41065 ft | 557 kts | 114° |
| 2026-05-06 22:35 | 24.04238 | -75.36214 | 41070 ft | 556 kts | 114° |
| 2026-05-06 22:35 | 24.00624 | -75.28724 | 41072 ft | 556 kts | 114° |
| 2026-05-06 22:36 | 23.97004 | -75.21237 | 41065 ft | 556 kts | 114° |
| 2026-05-06 22:36 | 23.93383 | -75.13757 | 41069 ft | 556 kts | 114° |
| 2026-05-06 22:37 | 23.89760 | -75.06285 | 41053 ft | 556 kts | 114° |
| 2026-05-06 22:37 | 23.86136 | -74.98823 | 41058 ft | 555 kts | 114° |
| 2026-05-06 22:38 | 23.82511 | -74.91371 | 41061 ft | 555 kts | 114° |
| 2026-05-06 22:38 | 23.78903 | -74.83963 | 41064 ft | 555 kts | 114° |
| 2026-05-06 22:39 | 23.75273 | -74.76524 | 41058 ft | 555 kts | 114° |
| 2026-05-06 22:39 | 23.71636 | -74.69080 | 41053 ft | 555 kts | 114° |
| 2026-05-06 22:40 | 23.67996 | -74.61644 | 41058 ft | 555 kts | 114° |
| 2026-05-06 22:40 | 23.64356 | -74.54217 | 41061 ft | 555 kts | 114° |
| 2026-05-06 22:41 | 23.58886 | -74.43079 | 41052 ft | 555 kts | 114° |
| 2026-05-06 22:42 | 23.55249 | -74.35688 | 41072 ft | 553 kts | 114° |
| 2026-05-06 22:42 | 23.51602 | -74.28286 | 41067 ft | 554 kts | 114° |
| 2026-05-06 22:43 | 23.47957 | -74.20900 | 41072 ft | 554 kts | 114° |
| 2026-05-06 22:43 | 23.44327 | -74.13555 | 41074 ft | 554 kts | 114° |
| 2026-05-06 22:44 | 23.40672 | -74.06173 | 41069 ft | 554 kts | 114° |
| 2026-05-06 22:44 | 23.37016 | -73.98797 | 41072 ft | 554 kts | 114° |
| 2026-05-06 22:45 | 23.33353 | -73.91420 | 41067 ft | 554 kts | 114° |
| 2026-05-06 22:45 | 23.29682 | -73.84037 | 41070 ft | 554 kts | 114° |
| 2026-05-06 22:46 | 23.26010 | -73.76662 | 41059 ft | 554 kts | 114° |
| 2026-05-06 22:46 | 23.22331 | -73.69287 | 41066 ft | 554 kts | 114° |
| 2026-05-06 22:47 | 23.18657 | -73.61932 | 41071 ft | 552 kts | 114° |
| 2026-05-06 22:47 | 23.15009 | -73.54635 | 41067 ft | 553 kts | 114° |
| 2026-05-06 22:48 | 23.11331 | -73.47296 | 41071 ft | 553 kts | 114° |
| 2026-05-06 22:48 | 23.07647 | -73.39951 | 41068 ft | 553 kts | 114° |
| 2026-05-06 22:49 | 23.03985 | -73.32663 | 41074 ft | 553 kts | 114° |
| 2026-05-06 22:49 | 23.00298 | -73.25333 | 41073 ft | 553 kts | 113° |
| 2026-05-06 22:50 | 22.96602 | -73.17999 | 41074 ft | 554 kts | 114° |
| 2026-05-06 22:50 | 22.92885 | -73.10629 | 41076 ft | 558 kts | 114° |
| 2026-05-06 22:51 | 22.89145 | -73.03233 | 41081 ft | 559 kts | 114° |
| 2026-05-06 22:51 | 22.85406 | -72.95842 | 41077 ft | 559 kts | 114° |
| 2026-05-06 22:52 | 22.81656 | -72.88444 | 41071 ft | 560 kts | 113° |
| 2026-05-06 22:52 | 22.77908 | -72.81063 | 41062 ft | 558 kts | 113° |
| 2026-05-06 22:53 | 22.74191 | -72.73746 | 41063 ft | 558 kts | 113° |
| 2026-05-06 22:53 | 22.70435 | -72.66390 | 41061 ft | 558 kts | 114° |
| 2026-05-06 22:54 | 22.66682 | -72.59039 | 41083 ft | 558 kts | 113° |
| 2026-05-06 22:54 | 22.62913 | -72.51675 | 41074 ft | 559 kts | 113° |
| 2026-05-06 22:55 | 22.59141 | -72.44310 | 41074 ft | 559 kts | 113° |
| 2026-05-06 22:55 | 22.55361 | -72.36942 | 41075 ft | 559 kts | 113° |
| 2026-05-06 22:56 | 22.51586 | -72.29595 | 41072 ft | 559 kts | 113° |
| 2026-05-06 22:56 | 22.47805 | -72.22245 | 41076 ft | 560 kts | 113° |
| 2026-05-06 22:57 | 22.44036 | -72.14932 | 41079 ft | 560 kts | 113° |
| 2026-05-06 22:57 | 22.40247 | -72.07586 | 41071 ft | 559 kts | 113° |
| 2026-05-06 22:58 | 22.36474 | -72.00285 | 41070 ft | 557 kts | 113° |
| 2026-05-06 22:58 | 22.32694 | -71.92979 | 41070 ft | 557 kts | 114° |
| 2026-05-06 22:59 | 22.28907 | -71.85670 | 41082 ft | 558 kts | 113° |
| 2026-05-06 22:59 | 22.25113 | -71.78359 | 41081 ft | 558 kts | 113° |
| 2026-05-06 23:00 | 22.21319 | -71.71057 | 41078 ft | 558 kts | 113° |
| 2026-05-06 23:00 | 22.17513 | -71.63743 | 41078 ft | 558 kts | 113° |
| 2026-05-06 23:01 | 22.13710 | -71.56444 | 41082 ft | 558 kts | 113° |
| 2026-05-06 23:01 | 22.09907 | -71.49156 | 41079 ft | 557 kts | 113° |
| 2026-05-06 23:02 | 22.06102 | -71.41873 | 41078 ft | 557 kts | 114° |
| 2026-05-06 23:02 | 22.02317 | -71.34639 | 41078 ft | 557 kts | 114° |
| 2026-05-06 23:03 | 21.98512 | -71.27381 | 41068 ft | 554 kts | 114° |
| 2026-05-06 23:03 | 21.94715 | -71.20139 | 41068 ft | 555 kts | 114° |
| 2026-05-06 23:04 | 21.91529 | -71.14078 | 41068 ft | 555 kts | 114° |
| 2026-05-06 23:04 | 21.87722 | -71.06838 | 41070 ft | 555 kts | 114° |
| 2026-05-06 23:05 | 21.83912 | -70.99606 | 41069 ft | 555 kts | 114° |
| 2026-05-06 23:05 | 21.80119 | -70.92414 | 41068 ft | 555 kts | 114° |
| 2026-05-06 23:06 | 21.76305 | -70.85192 | 41082 ft | 555 kts | 114° |
| 2026-05-06 23:06 | 21.72487 | -70.77972 | 41084 ft | 555 kts | 114° |
| 2026-05-06 23:07 | 21.68665 | -70.70755 | 41080 ft | 555 kts | 114° |
| 2026-05-06 23:07 | 21.64843 | -70.63549 | 41080 ft | 555 kts | 114° |
| 2026-05-06 23:08 | 21.61017 | -70.56343 | 41078 ft | 555 kts | 114° |
| 2026-05-06 23:08 | 21.57221 | -70.49205 | 41077 ft | 553 kts | 114° |
| 2026-05-06 23:09 | 21.53406 | -70.42037 | 41082 ft | 553 kts | 114° |
| 2026-05-06 23:09 | 21.49583 | -70.34869 | 41080 ft | 553 kts | 114° |
| 2026-05-06 23:10 | 21.45763 | -70.27710 | 41080 ft | 553 kts | 114° |
| 2026-05-06 23:10 | 21.41931 | -70.20544 | 41080 ft | 553 kts | 114° |
| 2026-05-06 23:11 | 21.38109 | -70.13402 | 41079 ft | 552 kts | 115° |
| 2026-05-06 23:11 | 21.34281 | -70.06259 | 41077 ft | 552 kts | 115° |
| 2026-05-06 23:12 | 21.30452 | -69.99124 | 41079 ft | 552 kts | 115° |
| 2026-05-06 23:12 | 21.26645 | -69.92039 | 41079 ft | 552 kts | 115° |
| 2026-05-06 23:13 | 21.22809 | -69.84910 | 41084 ft | 551 kts | 115° |
| 2026-05-06 23:13 | 21.18981 | -69.77804 | 41063 ft | 549 kts | 115° |
| 2026-05-06 23:14 | 21.15158 | -69.70717 | 41074 ft | 550 kts | 115° |
| 2026-05-06 23:14 | 21.11329 | -69.63630 | 41077 ft | 550 kts | 115° |
| 2026-05-06 23:15 | 21.07495 | -69.56540 | 41078 ft | 550 kts | 115° |
| 2026-05-06 23:15 | 21.03663 | -69.49466 | 41079 ft | 547 kts | 115° |
| 2026-05-06 23:16 | 20.99835 | -69.42401 | 41085 ft | 548 kts | 115° |
| 2026-05-06 23:16 | 20.96000 | -69.35341 | 41081 ft | 548 kts | 115° |
| 2026-05-06 23:17 | 20.92169 | -69.28292 | 41082 ft | 548 kts | 116° |
| 2026-05-06 23:17 | 20.88330 | -69.21239 | 41083 ft | 548 kts | 116° |
| 2026-05-06 23:18 | 20.84522 | -69.14253 | 41076 ft | 546 kts | 116° |
| 2026-05-06 23:18 | 20.80695 | -69.07237 | 41077 ft | 546 kts | 116° |
| 2026-05-06 23:19 | 20.76870 | -69.00238 | 41068 ft | 545 kts | 116° |
| 2026-05-06 23:19 | 20.73047 | -68.93246 | 41082 ft | 545 kts | 116° |
| 2026-05-06 23:20 | 20.69215 | -68.86251 | 41077 ft | 545 kts | 116° |
| 2026-05-06 23:20 | 20.65400 | -68.79295 | 41078 ft | 542 kts | 116° |
| 2026-05-06 23:21 | 20.61586 | -68.72347 | 41084 ft | 542 kts | 116° |
| 2026-05-06 23:21 | 20.57769 | -68.65405 | 41084 ft | 542 kts | 116° |
| 2026-05-06 23:22 | 20.53969 | -68.58500 | 41083 ft | 542 kts | 116° |
| 2026-05-06 23:22 | 20.50145 | -68.51561 | 41092 ft | 542 kts | 117° |
| 2026-05-06 23:23 | 20.46328 | -68.44643 | 41079 ft | 541 kts | 117° |
| 2026-05-06 23:23 | 20.42219 | -68.37895 | 41072 ft | 545 kts | 126° |
| 2026-05-06 23:24 | 20.37311 | -68.31721 | 41079 ft | 545 kts | 128° |
| 2026-05-06 23:24 | 20.32528 | -68.25449 | 41084 ft | 545 kts | 126° |
| 2026-05-06 23:25 | 20.27675 | -68.19233 | 41095 ft | 546 kts | 128° |
| 2026-05-06 23:25 | 20.22871 | -68.13028 | 41084 ft | 546 kts | 127° |
| 2026-05-06 23:26 | 20.18026 | -68.06788 | 41087 ft | 546 kts | 128° |
| 2026-05-06 23:26 | 20.13178 | -68.00562 | 41084 ft | 546 kts | 127° |
| 2026-05-06 23:27 | 20.08336 | -67.94332 | 41082 ft | 546 kts | 127° |
| 2026-05-06 23:27 | 20.03477 | -67.88106 | 41086 ft | 546 kts | 127° |
| 2026-05-06 23:28 | 19.98667 | -67.81858 | 41076 ft | 545 kts | 124° |
| 2026-05-06 23:28 | 19.95084 | -67.74850 | 41071 ft | 537 kts | 107° |
| 2026-05-06 23:29 | 19.92869 | -67.67299 | 41095 ft | 534 kts | 102° |
| 2026-05-06 23:29 | 19.90450 | -67.59805 | 41084 ft | 538 kts | 109° |
| 2026-05-06 23:30 | 19.87434 | -67.52513 | 41093 ft | 539 kts | 109° |
| 2026-05-06 23:30 | 19.84865 | -67.45078 | 41080 ft | 540 kts | 108° |
| 2026-05-06 23:30 | 19.83465 | -67.41395 | 40961 ft | 530 kts | 110° |
| 2026-05-06 23:31 | 19.82060 | -67.37856 | 40647 ft | 509 kts | 110° |
| 2026-05-06 23:31 | 19.80771 | -67.34387 | 40333 ft | 509 kts | 108° |
| 2026-05-06 23:31 | 19.79507 | -67.30819 | 40045 ft | 521 kts | 108° |
| 2026-05-06 23:31 | 19.78178 | -67.27230 | 39765 ft | 524 kts | 109° |
| 2026-05-06 23:32 | 19.76792 | -67.23636 | 39496 ft | 526 kts | 109° |
| 2026-05-06 23:32 | 19.75428 | -67.20021 | 39236 ft | 530 kts | 110° |
| 2026-05-06 23:32 | 19.74092 | -67.16366 | 39092 ft | 530 kts | 109° |
| 2026-05-06 23:33 | 19.71356 | -67.09065 | 39090 ft | 534 kts | 110° |
| 2026-05-06 23:33 | 19.68606 | -67.01728 | 39089 ft | 535 kts | 110° |
| 2026-05-06 23:34 | 19.65858 | -66.94393 | 39093 ft | 535 kts | 110° |
| 2026-05-06 23:34 | 19.63097 | -66.87054 | 39087 ft | 538 kts | 111° |
| 2026-05-06 23:35 | 19.60331 | -66.79693 | 39087 ft | 537 kts | 111° |
| 2026-05-06 23:35 | 19.57558 | -66.72338 | 39089 ft | 537 kts | 111° |
| 2026-05-06 23:36 | 19.54782 | -66.64978 | 39085 ft | 537 kts | 111° |
| 2026-05-06 23:36 | 19.52015 | -66.57658 | 39075 ft | 538 kts | 111° |
| 2026-05-06 23:37 | 19.49201 | -66.50217 | 39081 ft | 540 kts | 112° |
| 2026-05-06 23:37 | 19.46417 | -66.42869 | 39081 ft | 541 kts | 112° |
| 2026-05-06 23:38 | 19.43611 | -66.35475 | 39079 ft | 541 kts | 112° |
| 2026-05-06 23:38 | 19.40803 | -66.28084 | 39079 ft | 541 kts | 112° |
| 2026-05-06 23:39 | 19.37984 | -66.20677 | 39086 ft | 542 kts | 113° |
| 2026-05-06 23:39 | 19.35164 | -66.13274 | 39085 ft | 542 kts | 113° |
| 2026-05-06 23:40 | 19.32337 | -66.05867 | 39086 ft | 542 kts | 113° |
| 2026-05-06 23:40 | 19.29525 | -65.98508 | 39087 ft | 542 kts | 113° |
| 2026-05-06 23:41 | 19.26694 | -65.91111 | 39093 ft | 543 kts | 114° |
| 2026-05-06 23:41 | 19.23858 | -65.83706 | 39093 ft | 543 kts | 114° |
| 2026-05-06 23:42 | 19.21020 | -65.76311 | 39092 ft | 543 kts | 114° |
| 2026-05-06 23:42 | 19.18175 | -65.68908 | 39093 ft | 543 kts | 114° |
| 2026-05-06 23:43 | 19.15328 | -65.61510 | 39095 ft | 542 kts | 114° |
| 2026-05-06 23:43 | 19.12482 | -65.54123 | 39088 ft | 542 kts | 114° |
| 2026-05-06 23:44 | 19.09635 | -65.46745 | 39093 ft | 542 kts | 114° |
| 2026-05-06 23:44 | 19.06802 | -65.39412 | 39097 ft | 542 kts | 114° |
| 2026-05-06 23:45 | 19.03948 | -65.32036 | 39082 ft | 542 kts | 115° |
| 2026-05-06 23:45 | 19.01092 | -65.24662 | 39088 ft | 542 kts | 115° |
| 2026-05-06 23:46 | 18.98236 | -65.17301 | 39085 ft | 542 kts | 115° |
| 2026-05-06 23:46 | 18.95375 | -65.09936 | 39085 ft | 541 kts | 115° |
| 2026-05-06 23:46 | 18.93949 | -65.06269 | 38447 ft | 538 kts | 115° |
| 2026-05-06 23:47 | 18.92531 | -65.02626 | 37736 ft | 536 kts | 115° |
| 2026-05-06 23:47 | 18.91112 | -64.98986 | 37029 ft | 537 kts | 114° |
| 2026-05-06 23:47 | 18.89690 | -64.95337 | 36333 ft | 538 kts | 114° |
| 2026-05-06 23:47 | 18.88261 | -64.91671 | 35625 ft | 540 kts | 114° |
| 2026-05-06 23:48 | 18.86830 | -64.88003 | 34910 ft | 541 kts | 114° |
| 2026-05-06 23:48 | 18.85393 | -64.84322 | 34199 ft | 543 kts | 113° |
| 2026-05-06 23:48 | 18.83953 | -64.80636 | 33445 ft | 543 kts | 113° |
| 2026-05-06 23:48 | 18.82529 | -64.76992 | 32732 ft | 544 kts | 113° |
| 2026-05-06 23:49 | 18.81079 | -64.73288 | 32015 ft | 545 kts | 113° |
| 2026-05-06 23:49 | 18.79631 | -64.69590 | 31292 ft | 546 kts | 113° |
| 2026-05-06 23:49 | 18.78181 | -64.65887 | 30578 ft | 542 kts | 113° |
| 2026-05-06 23:49 | 18.76750 | -64.62235 | 29819 ft | 535 kts | 113° |
| 2026-05-06 23:50 | 18.75335 | -64.58628 | 29112 ft | 529 kts | 112° |
| 2026-05-06 23:50 | 18.72549 | -64.51536 | 27733 ft | 517 kts | 112° |
| 2026-05-06 23:50 | 18.71182 | -64.48057 | 27056 ft | 511 kts | 112° |
| 2026-05-06 23:51 | 18.70279 | -64.45762 | 26613 ft | 507 kts | 112° |
| 2026-05-06 23:51 | 18.68935 | -64.42347 | 25948 ft | 502 kts | 112° |
| 2026-05-06 23:51 | 18.67606 | -64.38971 | 25293 ft | 496 kts | 112° |
| 2026-05-06 23:51 | 18.66289 | -64.35627 | 24647 ft | 491 kts | 112° |
| 2026-05-06 23:52 | 18.64985 | -64.32320 | 23998 ft | 485 kts | 112° |
| 2026-05-06 23:52 | 18.63692 | -64.29045 | 23314 ft | 482 kts | 111° |
| 2026-05-06 23:52 | 18.62417 | -64.25811 | 22677 ft | 477 kts | 112° |
| 2026-05-06 23:52 | 18.61147 | -64.22596 | 22050 ft | 471 kts | 111° |
| 2026-05-06 23:53 | 18.59890 | -64.19412 | 21428 ft | 469 kts | 111° |
| 2026-05-06 23:53 | 18.58642 | -64.16252 | 20817 ft | 465 kts | 111° |
| 2026-05-06 23:53 | 18.57399 | -64.13109 | 20203 ft | 462 kts | 111° |
| 2026-05-06 23:53 | 18.56182 | -64.10039 | 19588 ft | 458 kts | 111° |
| 2026-05-06 23:54 | 18.54962 | -64.06961 | 18985 ft | 454 kts | 111° |
| 2026-05-06 23:54 | 18.53749 | -64.03902 | 18388 ft | 451 kts | 111° |
| 2026-05-06 23:54 | 18.52548 | -64.00872 | 17749 ft | 445 kts | 111° |
| 2026-05-06 23:54 | 18.51363 | -63.97880 | 17189 ft | 441 kts | 111° |
| 2026-05-06 23:55 | 18.50183 | -63.94907 | 16603 ft | 436 kts | 111° |
| 2026-05-06 23:55 | 18.49016 | -63.91971 | 16036 ft | 432 kts | 111° |
| 2026-05-06 23:55 | 18.47860 | -63.89057 | 15469 ft | 427 kts | 111° |
| 2026-05-06 23:55 | 18.46713 | -63.86172 | 14905 ft | 427 kts | 111° |
| 2026-05-06 23:56 | 18.45576 | -63.83314 | 14347 ft | 419 kts | 111° |
| 2026-05-06 23:56 | 18.44453 | -63.80493 | 13783 ft | 413 kts | 112° |
| 2026-05-06 23:56 | 18.43347 | -63.77715 | 13221 ft | 411 kts | 111° |
| 2026-05-06 23:56 | 18.42248 | -63.74953 | 12678 ft | 406 kts | 111° |
| 2026-05-06 23:57 | 18.41175 | -63.72263 | 12149 ft | 384 kts | 111° |
| 2026-05-06 23:57 | 18.40177 | -63.69764 | 11657 ft | 357 kts | 111° |
| 2026-05-06 23:57 | 18.39217 | -63.67439 | 11190 ft | 335 kts | 115° |
| 2026-05-06 23:57 | 18.37837 | -63.65563 | 10766 ft | 316 kts | 135° |
| 2026-05-06 23:58 | 18.36269 | -63.64016 | 10465 ft | 304 kts | 136° |
| 2026-05-06 23:58 | 18.34741 | -63.62497 | 10138 ft | 299 kts | 136° |
| 2026-05-06 23:58 | 18.33238 | -63.60997 | 9787 ft | 297 kts | 136° |
| 2026-05-06 23:58 | 18.31741 | -63.59511 | 9444 ft | 294 kts | 136° |
| 2026-05-06 23:59 | 18.30255 | -63.58037 | 9108 ft | 293 kts | 136° |
| 2026-05-06 23:59 | 18.28778 | -63.56572 | 8777 ft | 291 kts | 136° |
| 2026-05-06 23:59 | 18.27316 | -63.55118 | 8448 ft | 289 kts | 136° |
| 2026-05-06 23:59 | 18.25858 | -63.53674 | 8124 ft | 286 kts | 136° |
| 2026-05-07 00:00 | 18.24415 | -63.52244 | 7803 ft | 283 kts | 135° |
| 2026-05-07 00:00 | 18.22988 | -63.50829 | 7486 ft | 281 kts | 136° |
| 2026-05-07 00:00 | 18.21585 | -63.49437 | 7171 ft | 280 kts | 135° |
| 2026-05-07 00:00 | 18.20174 | -63.48040 | 6854 ft | 278 kts | 136° |
| 2026-05-07 00:01 | 18.18767 | -63.46645 | 6536 ft | 277 kts | 136° |
| 2026-05-07 00:01 | 18.17375 | -63.45266 | 6213 ft | 272 kts | 136° |
| 2026-05-07 00:01 | 18.15992 | -63.43897 | 5899 ft | 272 kts | 136° |
| 2026-05-07 00:01 | 18.14621 | -63.42539 | 5595 ft | 268 kts | 136° |
| 2026-05-07 00:02 | 18.13271 | -63.41204 | 5295 ft | 265 kts | 136° |
| 2026-05-07 00:02 | 18.11938 | -63.39883 | 5001 ft | 262 kts | 136° |
| 2026-05-07 00:02 | 18.10615 | -63.38574 | 4700 ft | 260 kts | 136° |
| 2026-05-07 00:02 | 18.09306 | -63.37281 | 4401 ft | 253 kts | 136° |
| 2026-05-07 00:03 | 18.08055 | -63.36044 | 4117 ft | 242 kts | 135° |
| 2026-05-07 00:03 | 18.06843 | -63.34845 | 3846 ft | 237 kts | 135° |
| 2026-05-07 00:03 | 18.05637 | -63.33651 | 3584 ft | 240 kts | 135° |
| 2026-05-07 00:03 | 18.04430 | -63.32459 | 3320 ft | 236 kts | 135° |
| 2026-05-07 00:04 | 18.03241 | -63.31284 | 3051 ft | 236 kts | 135° |
| 2026-05-07 00:04 | 18.02128 | -63.30027 | 2740 ft | 233 kts | 121° |
| 2026-05-07 00:04 | 18.01668 | -63.28449 | 2607 ft | 221 kts | 94° |
| 2026-05-07 00:04 | 18.01795 | -63.26945 | 2677 ft | 194 kts | 82° |
| 2026-05-07 00:05 | 18.01996 | -63.25579 | 2539 ft | 196 kts | 82° |
| 2026-05-07 00:05 | 18.02189 | -63.24199 | 2288 ft | 186 kts | 82° |
| 2026-05-07 00:05 | 18.02381 | -63.22849 | 2038 ft | 188 kts | 82° |
| 2026-05-07 00:05 | 18.02576 | -63.21501 | 1803 ft | 186 kts | 81° |
| 2026-05-07 00:06 | 18.02770 | -63.20161 | 1552 ft | 187 kts | 82° |
| 2026-05-07 00:06 | 18.02961 | -63.18814 | 1303 ft | 185 kts | 81° |
| 2026-05-07 00:06 | 18.03143 | -63.17540 | 1047 ft | 162 kts | 81° |
| 2026-05-07 00:06 | 18.03295 | -63.16476 | 848 ft | 135 kts | 83° |
| 2026-05-07 00:07 | 18.03429 | -63.15544 | 653 ft | 123 kts | 82° |
| 2026-05-07 00:07 | 18.03570 | -63.14642 | 471 ft | 124 kts | 80° |
| 2026-05-07 00:07 | 18.03689 | -63.13794 | 353 ft | 118 kts | 82° |
| 2026-05-07 00:07 | 18.03808 | -63.12911 | 214 ft | 123 kts | 82° |
| 2026-05-07 00:08 | 18.03935 | -63.12013 | 87 ft | 128 kts | 83° |
| 2026-05-07 00:08 | 18.04054 | -63.11169 | 24 ft | 84 kts | 81° |
| 2026-05-07 00:08 | 18.04106 | -63.10794 | 24 ft | 42 kts | 81° |
| 2026-05-07 00:08 | 18.04122 | -63.10561 | 24 ft | 28 kts | 94° |
| 2026-05-07 00:09 | 18.04134 | -63.10471 | 26 ft | 0 kts | 355° |
| 2026-05-07 00:09 | 18.04135 | -63.10472 | 26 ft | 2 kts | 338° |
| 2026-05-07 00:09 | 18.04142 | -63.10502 | 24 ft | 5 kts | 270° |
| 2026-05-07 00:09 | 18.04132 | -63.10594 | 27 ft | 20 kts | 261° |
| 2026-05-07 00:10 | 18.04105 | -63.10792 | 24 ft | 33 kts | 263° |
| 2026-05-07 00:10 | 18.04072 | -63.11028 | 24 ft | 32 kts | 261° |
| 2026-05-07 00:10 | 18.04119 | -63.11175 | 25 ft | 18 kts | 332° |
| 2026-05-07 00:10 | 18.04143 | -63.11213 | 25 ft | 7 kts | 264° |
| 2026-05-07 00:11 | 18.04148 | -63.11296 | 27 ft | 15 kts | 318° |
| 2026-05-07 00:11 | 18.04236 | -63.11356 | 25 ft | 19 kts | 269° |
| 2026-05-07 00:11 | 18.04199 | -63.11512 | 25 ft | 22 kts | 225° |
| 2026-05-07 00:11 | 18.04083 | -63.11655 | 25 ft | 23 kts | 231° |
| 2026-05-07 00:12 | 18.04112 | -63.11695 | 25 ft | 7 kts | 32° |
| 2026-05-07 00:12 | 18.04124 | -63.11690 | 25 ft | 0 kts | 359° |